sensor_id;sensor_type;location;lat;lon;timestamp;pressure;altitude;pressure_sealevel;temperature;humidity
59289;BME280;45056;47.602;9.886;2023-01-15T00:00:11;92131.41;;;9.11;39.15
59289;BME280;45056;47.602;9.886;2023-01-15T00:02:40;92133.38;;;9.10;38.99
59289;BME280;45056;47.602;9.886;2023-01-15T00:05:08;92125.53;;;9.12;38.78
59289;BME280;45056;47.602;9.886;2023-01-15T00:07:36;92111.94;;;9.12;39.02
59289;BME280;45056;47.602;9.886;2023-01-15T00:10:06;92109.25;;;9.12;38.95
59289;BME280;45056;47.602;9.886;2023-01-15T00:12:35;92098.38;;;9.12;39.15
59289;BME280;45056;47.602;9.886;2023-01-15T00:15:04;92099.16;;;9.13;38.90
59289;BME280;45056;47.602;9.886;2023-01-15T00:17:33;92085.13;;;9.14;38.98
59289;BME280;45056;47.602;9.886;2023-01-15T00:20:01;92091.31;;;9.15;39.02
59289;BME280;45056;47.602;9.886;2023-01-15T00:22:29;92089.03;;;9.13;39.11
59289;BME280;45056;47.602;9.886;2023-01-15T00:24:57;92087.84;;;9.14;39.26
59289;BME280;45056;47.602;9.886;2023-01-15T00:27:44;92091.31;;;9.15;39.52
59289;BME280;45056;47.602;9.886;2023-01-15T00:30:14;92079.25;;;9.16;38.74
59289;BME280;45056;47.602;9.886;2023-01-15T00:32:43;92078.34;;;9.19;38.10
59289;BME280;45056;47.602;9.886;2023-01-15T00:35:14;92082.13;;;9.21;37.61
59289;BME280;45056;47.602;9.886;2023-01-15T00:37:44;92075.78;;;9.24;37.15
59289;BME280;45056;47.602;9.886;2023-01-15T00:40:14;92080.59;;;9.30;36.79
59289;BME280;45056;47.602;9.886;2023-01-15T00:42:45;92070.19;;;9.37;36.80
59289;BME280;45056;47.602;9.886;2023-01-15T00:45:13;92061.25;;;9.46;36.56
59289;BME280;45056;47.602;9.886;2023-01-15T00:47:43;92068.63;;;9.55;36.70
59289;BME280;45056;47.602;9.886;2023-01-15T00:50:14;92066.81;;;9.61;36.92
59289;BME280;45056;47.602;9.886;2023-01-15T00:52:42;92053.38;;;9.67;37.04
59289;BME280;45056;47.602;9.886;2023-01-15T00:55:10;92047.78;;;9.71;37.28
59289;BME280;45056;47.602;9.886;2023-01-15T00:57:39;92043.69;;;9.75;37.28
59289;BME280;45056;47.602;9.886;2023-01-15T01:00:10;92051.38;;;9.77;37.19
59289;BME280;45056;47.602;9.886;2023-01-15T01:02:38;92046.25;;;9.79;37.88
59289;BME280;45056;47.602;9.886;2023-01-15T01:05:07;92045.78;;;9.80;38.05
59289;BME280;45056;47.602;9.886;2023-01-15T01:07:36;92044.88;;;9.84;38.05
59289;BME280;45056;47.602;9.886;2023-01-15T01:10:05;92043.19;;;9.86;38.08
59289;BME280;45056;47.602;9.886;2023-01-15T01:12:35;92060.06;;;9.90;38.06
59289;BME280;45056;47.602;9.886;2023-01-15T01:15:05;92058.88;;;9.91;37.78
59289;BME280;45056;47.602;9.886;2023-01-15T01:17:37;92058.72;;;9.95;37.66
59289;BME280;45056;47.602;9.886;2023-01-15T01:20:06;92052.81;;;9.96;37.53
59289;BME280;45056;47.602;9.886;2023-01-15T01:22:36;92079.53;;;9.98;37.57
59289;BME280;45056;47.602;9.886;2023-01-15T01:25:05;92055.84;;;9.99;37.36
59289;BME280;45056;47.602;9.886;2023-01-15T01:27:33;92063.53;;;10.00;37.53
59289;BME280;45056;47.602;9.886;2023-01-15T01:30:03;92058.09;;;10.00;37.46
59289;BME280;45056;47.602;9.886;2023-01-15T01:32:31;92062.78;;;10.00;37.37
59289;BME280;45056;47.602;9.886;2023-01-15T01:35:01;92052.66;;;10.00;37.32
59289;BME280;45056;47.602;9.886;2023-01-15T01:37:29;92052.19;;;10.02;37.32
59289;BME280;45056;47.602;9.886;2023-01-15T01:39:57;92067.28;;;10.03;37.61
59289;BME280;45056;47.602;9.886;2023-01-15T01:42:25;92043.13;;;10.05;37.53
59289;BME280;45056;47.602;9.886;2023-01-15T01:45:02;92051.56;;;10.07;37.59
59289;BME280;45056;47.602;9.886;2023-01-15T01:47:34;92044.94;;;10.08;37.66
59289;BME280;45056;47.602;9.886;2023-01-15T01:50:08;92031.34;;;10.08;37.77
59289;BME280;45056;47.602;9.886;2023-01-15T01:52:44;92049.88;;;10.09;37.61
59289;BME280;45056;47.602;9.886;2023-01-15T01:55:18;92046.72;;;10.11;37.93
59289;BME280;45056;47.602;9.886;2023-01-15T01:57:51;92048.50;;;10.14;38.05
59289;BME280;45056;47.602;9.886;2023-01-15T02:00:23;92029.78;;;10.16;37.84
59289;BME280;45056;47.602;9.886;2023-01-15T02:02:53;92027.34;;;10.18;37.57
59289;BME280;45056;47.602;9.886;2023-01-15T02:05:28;92024.91;;;10.20;37.83
59289;BME280;45056;47.602;9.886;2023-01-15T02:07:59;92028.22;;;10.24;37.89
59289;BME280;45056;47.602;9.886;2023-01-15T02:10:28;92015.38;;;10.25;37.86
59289;BME280;45056;47.602;9.886;2023-01-15T02:13:02;92033.22;;;10.26;37.85
59289;BME280;45056;47.602;9.886;2023-01-15T02:15:38;92026.56;;;10.27;37.59
59289;BME280;45056;47.602;9.886;2023-01-15T02:18:16;92031.50;;;10.29;37.72
59289;BME280;45056;47.602;9.886;2023-01-15T02:20:56;92035.75;;;10.30;37.65
59289;BME280;45056;47.602;9.886;2023-01-15T02:29:53;92034.41;;;10.25;39.12
59289;BME280;45056;47.602;9.886;2023-01-15T02:32:32;92008.91;;;10.22;39.76
59289;BME280;45056;47.602;9.886;2023-01-15T02:35:11;91997.44;;;10.18;40.13
59289;BME280;45056;47.602;9.886;2023-01-15T02:37:48;91995.94;;;10.17;40.53
59289;BME280;45056;47.602;9.886;2023-01-15T02:40:22;91985.56;;;10.16;40.97
59289;BME280;45056;47.602;9.886;2023-01-15T02:42:57;91989.94;;;10.13;41.74
59289;BME280;45056;47.602;9.886;2023-01-15T02:45:30;91978.00;;;10.10;41.90
59289;BME280;45056;47.602;9.886;2023-01-15T02:48:07;91987.09;;;10.07;42.35
59289;BME280;45056;47.602;9.886;2023-01-15T02:50:43;91983.63;;;10.07;42.27
59289;BME280;45056;47.602;9.886;2023-01-15T02:53:19;91980.63;;;10.05;42.62
59289;BME280;45056;47.602;9.886;2023-01-15T02:55:55;91970.97;;;10.04;43.00
59289;BME280;45056;47.602;9.886;2023-01-15T02:58:33;91967.97;;;10.02;43.52
59289;BME280;45056;47.602;9.886;2023-01-15T03:01:11;91958.75;;;9.99;43.68
59289;BME280;45056;47.602;9.886;2023-01-15T03:03:48;91958.91;;;9.95;44.04
59289;BME280;45056;47.602;9.886;2023-01-15T03:06:32;91951.69;;;9.92;44.21
59289;BME280;45056;47.602;9.886;2023-01-15T03:09:06;91949.91;;;9.89;44.71
59289;BME280;45056;47.602;9.886;2023-01-15T03:11:41;91942.66;;;9.86;44.89
59289;BME280;45056;47.602;9.886;2023-01-15T03:14:18;91949.31;;;9.85;44.83
59289;BME280;45056;47.602;9.886;2023-01-15T03:16:52;91940.09;;;9.82;44.98
59289;BME280;45056;47.602;9.886;2023-01-15T03:19:26;91928.22;;;9.80;45.23
59289;BME280;45056;47.602;9.886;2023-01-15T03:22:04;91918.56;;;9.79;44.80
59289;BME280;45056;47.602;9.886;2023-01-15T03:24:41;91916.47;;;9.74;44.85
59289;BME280;45056;47.602;9.886;2023-01-15T03:27:14;91889.31;;;9.74;44.93
59289;BME280;45056;47.602;9.886;2023-01-15T03:29:47;91896.69;;;9.73;44.88
59289;BME280;45056;47.602;9.886;2023-01-15T03:32:19;91912.25;;;9.73;44.92
59289;BME280;45056;47.602;9.886;2023-01-15T03:34:51;91911.06;;;9.74;45.20
59289;BME280;45056;47.602;9.886;2023-01-15T03:37:22;91898.69;;;9.73;45.97
59289;BME280;45056;47.602;9.886;2023-01-15T03:39:55;91905.31;;;9.72;45.88
59289;BME280;45056;47.602;9.886;2023-01-15T03:42:38;91922.38;;;9.72;45.06
59289;BME280;45056;47.602;9.886;2023-01-15T03:45:19;91924.78;;;9.70;44.67
59289;BME280;45056;47.602;9.886;2023-01-15T03:48:04;91898.84;;;9.69;44.19
59289;BME280;45056;47.602;9.886;2023-01-15T03:50:46;91895.84;;;9.67;44.07
59289;BME280;45056;47.602;9.886;2023-01-15T03:53:20;91902.03;;;9.67;43.83
59289;BME280;45056;47.602;9.886;2023-01-15T03:56:00;91912.13;;;9.67;43.62
59289;BME280;45056;47.602;9.886;2023-01-15T03:58:40;91917.28;;;9.65;43.36
59289;BME280;45056;47.602;9.886;2023-01-15T04:01:22;91921.22;;;9.64;42.92
59289;BME280;45056;47.602;9.886;2023-01-15T04:03:57;91913.34;;;9.66;43.03
59289;BME280;45056;47.602;9.886;2023-01-15T04:06:31;91928.13;;;9.65;43.48
59289;BME280;45056;47.602;9.886;2023-01-15T04:09:06;91940.94;;;9.64;44.17
59289;BME280;45056;47.602;9.886;2023-01-15T04:11:37;91932.50;;;9.62;45.42
59289;BME280;45056;47.602;9.886;2023-01-15T04:14:05;91944.31;;;9.59;46.41
59289;BME280;45056;47.602;9.886;2023-01-15T04:16:35;91927.44;;;9.55;47.27
59289;BME280;45056;47.602;9.886;2023-01-15T04:19:03;91933.50;;;9.50;48.25
59289;BME280;45056;47.602;9.886;2023-01-15T04:21:31;91926.88;;;9.42;49.16
59289;BME280;45056;47.602;9.886;2023-01-15T04:23:59;91929.47;;;9.36;49.58
59289;BME280;45056;47.602;9.886;2023-01-15T04:26:27;91916.03;;;9.32;49.83
59289;BME280;45056;47.602;9.886;2023-01-15T04:28:55;91911.53;;;9.29;50.69
59289;BME280;45056;47.602;9.886;2023-01-15T04:31:23;91925.28;;;9.26;51.40
59289;BME280;45056;47.602;9.886;2023-01-15T04:33:53;91917.00;;;9.20;52.08
59289;BME280;45056;47.602;9.886;2023-01-15T04:36:21;91912.94;;;9.15;52.89
59289;BME280;45056;47.602;9.886;2023-01-15T04:38:49;91915.84;;;9.12;53.20
59289;BME280;45056;47.602;9.886;2023-01-15T04:41:17;91910.25;;;9.06;53.39
59289;BME280;45056;47.602;9.886;2023-01-15T04:44:03;91910.25;;;9.06;53.62
59289;BME280;45056;47.602;9.886;2023-01-15T04:46:36;91913.75;;;9.06;53.68
59289;BME280;45056;47.602;9.886;2023-01-15T04:49:09;91924.13;;;9.08;53.82
59289;BME280;45056;47.602;9.886;2023-01-15T04:51:39;91909.63;;;9.11;53.48
59289;BME280;45056;47.602;9.886;2023-01-15T04:54:08;91912.19;;;9.15;53.14
59289;BME280;45056;47.602;9.886;2023-01-15T04:56:39;91898.44;;;9.18;53.39
59289;BME280;45056;47.602;9.886;2023-01-15T04:59:09;91908.88;;;9.20;53.93
59289;BME280;45056;47.602;9.886;2023-01-15T05:01:37;91898.78;;;9.20;54.21
59289;BME280;45056;47.602;9.886;2023-01-15T05:04:07;91923.63;;;9.19;54.39
59289;BME280;45056;47.602;9.886;2023-01-15T05:06:35;91924.84;;;9.18;55.47
59289;BME280;45056;47.602;9.886;2023-01-15T05:09:04;91947.19;;;9.13;56.19
59289;BME280;45056;47.602;9.886;2023-01-15T05:11:34;91940.09;;;9.06;56.92
59289;BME280;45056;47.602;9.886;2023-01-15T05:14:05;91941.47;;;9.01;56.93
59289;BME280;45056;47.602;9.886;2023-01-15T05:16:33;91935.00;;;8.99;56.96
59289;BME280;45056;47.602;9.886;2023-01-15T05:19:04;91945.56;;;8.97;57.63
59289;BME280;45056;47.602;9.886;2023-01-15T05:21:36;91926.72;;;8.93;57.78
59289;BME280;45056;47.602;9.886;2023-01-15T05:24:10;91912.84;;;8.91;58.29
59289;BME280;45056;47.602;9.886;2023-01-15T05:26:41;91927.34;;;8.88;58.40
59289;BME280;45056;47.602;9.886;2023-01-15T05:29:10;91917.41;;;8.85;58.59
59289;BME280;45056;47.602;9.886;2023-01-15T05:31:39;91925.25;;;8.83;59.22
59289;BME280;45056;47.602;9.886;2023-01-15T05:34:10;91935.94;;;8.77;59.76
59289;BME280;45056;47.602;9.886;2023-01-15T05:36:41;91938.06;;;8.73;60.15
59289;BME280;45056;47.602;9.886;2023-01-15T05:39:09;91929.31;;;8.69;60.65
59289;BME280;45056;47.602;9.886;2023-01-15T05:41:37;91912.47;;;8.64;60.25
59289;BME280;45056;47.602;9.886;2023-01-15T05:44:21;91904.31;;;8.64;58.94
59289;BME280;45056;47.602;9.886;2023-01-15T05:46:52;91906.28;;;8.64;57.79
59289;BME280;45056;47.602;9.886;2023-01-15T05:49:24;91900.41;;;8.65;56.93
59289;BME280;45056;47.602;9.886;2023-01-15T05:51:55;91906.56;;;8.66;56.46
59289;BME280;45056;47.602;9.886;2023-01-15T05:54:25;91898.00;;;8.68;56.04
59289;BME280;45056;47.602;9.886;2023-01-15T05:56:55;91890.31;;;8.66;55.07
59289;BME280;45056;47.602;9.886;2023-01-15T05:59:25;91906.75;;;8.62;54.46
59289;BME280;45056;47.602;9.886;2023-01-15T06:01:55;91906.75;;;8.62;54.75
59289;BME280;45056;47.602;9.886;2023-01-15T06:04:23;91912.91;;;8.63;54.64
59289;BME280;45056;47.602;9.886;2023-01-15T06:06:54;91908.25;;;8.63;54.89
59289;BME280;45056;47.602;9.886;2023-01-15T06:09:24;91917.13;;;8.64;55.07
59289;BME280;45056;47.602;9.886;2023-01-15T06:11:53;91917.41;;;8.66;55.01
59289;BME280;45056;47.602;9.886;2023-01-15T06:14:21;91910.50;;;8.65;55.09
59289;BME280;45056;47.602;9.886;2023-01-15T06:16:49;91914.41;;;8.64;55.10
59289;BME280;45056;47.602;9.886;2023-01-15T06:19:17;91908.53;;;8.65;54.73
59289;BME280;45056;47.602;9.886;2023-01-15T06:21:46;91909.28;;;8.66;54.74
59289;BME280;45056;47.602;9.886;2023-01-15T06:24:16;91920.44;;;8.68;54.95
59289;BME280;45056;47.602;9.886;2023-01-15T06:26:46;91902.50;;;8.71;55.43
59289;BME280;45056;47.602;9.886;2023-01-15T06:29:14;91913.22;;;8.74;54.55
59289;BME280;45056;47.602;9.886;2023-01-15T06:31:45;91908.06;;;8.76;54.01
59289;BME280;45056;47.602;9.886;2023-01-15T06:34:15;91919.53;;;8.80;54.46
59289;BME280;45056;47.602;9.886;2023-01-15T06:36:46;91913.19;;;8.84;54.99
59289;BME280;45056;47.602;9.886;2023-01-15T06:39:15;91912.28;;;8.87;55.40
59289;BME280;45056;47.602;9.886;2023-01-15T06:41:43;91922.22;;;8.90;56.24
59289;BME280;45056;47.602;9.886;2023-01-15T06:44:29;91908.19;;;8.91;55.90
59289;BME280;45056;47.602;9.886;2023-01-15T06:47:17;91923.28;;;8.92;55.71
59289;BME280;45056;47.602;9.886;2023-01-15T06:49:52;91918.59;;;8.93;55.90
59289;BME280;45056;47.602;9.886;2023-01-15T06:52:22;91912.41;;;8.92;55.91
59289;BME280;45056;47.602;9.886;2023-01-15T06:54:52;91902.78;;;8.91;56.08
59289;BME280;45056;47.602;9.886;2023-01-15T06:57:20;91898.84;;;8.92;55.72
59289;BME280;45056;47.602;9.886;2023-01-15T06:59:50;91903.50;;;8.92;55.36
59289;BME280;45056;47.602;9.886;2023-01-15T07:02:18;91891.44;;;8.93;54.33
59289;BME280;45056;47.602;9.886;2023-01-15T07:04:47;91897.47;;;8.97;53.77
59289;BME280;45056;47.602;9.886;2023-01-15T07:07:16;91887.19;;;9.01;53.27
59289;BME280;45056;47.602;9.886;2023-01-15T07:09:46;91880.41;;;9.06;52.99
59289;BME280;45056;47.602;9.886;2023-01-15T07:12:16;91877.56;;;9.09;51.69
59289;BME280;45056;47.602;9.886;2023-01-15T07:14:44;91872.72;;;9.14;50.97
59289;BME280;45056;47.602;9.886;2023-01-15T07:17:13;91876.00;;;9.18;51.10
59289;BME280;45056;47.602;9.886;2023-01-15T07:19:41;91878.56;;;9.21;51.74
59289;BME280;45056;47.602;9.886;2023-01-15T07:22:10;91889.09;;;9.29;52.69
59289;BME280;45056;47.602;9.886;2023-01-15T07:24:38;91887.25;;;9.35;53.66
59289;BME280;45056;47.602;9.886;2023-01-15T07:27:06;91878.31;;;9.44;54.26
59289;BME280;45056;47.602;9.886;2023-01-15T07:29:36;91880.22;;;9.52;55.01
59289;BME280;45056;47.602;9.886;2023-01-15T07:32:05;91876.41;;;9.59;55.19
59289;BME280;45056;47.602;9.886;2023-01-15T07:34:33;91872.16;;;9.67;55.48
59289;BME280;45056;47.602;9.886;2023-01-15T07:37:01;91876.31;;;9.78;55.40
59289;BME280;45056;47.602;9.886;2023-01-15T07:39:29;91869.78;;;9.85;55.07
59289;BME280;45056;47.602;9.886;2023-01-15T07:41:57;91877.09;;;9.93;54.98
59289;BME280;45056;47.602;9.886;2023-01-15T07:44:44;91875.56;;;10.02;54.78
59289;BME280;45056;47.602;9.886;2023-01-15T07:47:30;91867.78;;;10.09;54.60
59289;BME280;45056;47.602;9.886;2023-01-15T07:50:18;91857.59;;;10.19;55.11
59289;BME280;45056;47.602;9.886;2023-01-15T07:52:48;91869.59;;;10.28;55.14
59289;BME280;45056;47.602;9.886;2023-01-15T07:55:17;91855.19;;;10.36;54.88
59289;BME280;45056;47.602;9.886;2023-01-15T07:57:45;91852.44;;;10.46;54.60
59289;BME280;45056;47.602;9.886;2023-01-15T08:00:19;91847.56;;;10.50;54.43
59289;BME280;45056;47.602;9.886;2023-01-15T08:02:49;91840.44;;;10.52;54.32
59289;BME280;45056;47.602;9.886;2023-01-15T08:05:18;91831.31;;;10.56;54.13
59289;BME280;45056;47.602;9.886;2023-01-15T08:07:46;91842.03;;;10.59;54.07
59289;BME280;45056;47.602;9.886;2023-01-15T08:10:15;91836.13;;;10.61;54.17
59289;BME280;45056;47.602;9.886;2023-01-15T08:12:43;91850.75;;;10.63;54.05
59289;BME280;45056;47.602;9.886;2023-01-15T08:15:37;91838.19;;;10.66;53.91
59289;BME280;45056;47.602;9.886;2023-01-15T08:18:09;91831.53;;;10.67;54.05
59289;BME280;45056;47.602;9.886;2023-01-15T08:20:37;91826.84;;;10.67;53.89
59289;BME280;45056;47.602;9.886;2023-01-15T08:23:05;91821.66;;;10.70;53.78
59289;BME280;45056;47.602;9.886;2023-01-15T08:25:34;91807.63;;;10.71;53.68
59289;BME280;45056;47.602;9.886;2023-01-15T08:28:03;91805.16;;;10.73;53.20
59289;BME280;45056;47.602;9.886;2023-01-15T08:30:33;91799.56;;;10.77;52.87
59289;BME280;45056;47.602;9.886;2023-01-15T08:33:02;91794.38;;;10.79;52.19
59289;BME280;45056;47.602;9.886;2023-01-15T08:35:30;91792.22;;;10.83;50.78
59289;BME280;45056;47.602;9.886;2023-01-15T08:38:03;91805.63;;;10.87;49.88
59289;BME280;45056;47.602;9.886;2023-01-15T08:40:33;91791.06;;;10.90;49.26
59289;BME280;45056;47.602;9.886;2023-01-15T08:43:01;91794.38;;;10.94;49.26
59289;BME280;45056;47.602;9.886;2023-01-15T08:45:29;91792.66;;;10.96;49.02
59289;BME280;45056;47.602;9.886;2023-01-15T08:47:59;91794.44;;;11.00;48.70
59289;BME280;45056;47.602;9.886;2023-01-15T08:50:27;91795.75;;;11.04;48.53
59289;BME280;45056;47.602;9.886;2023-01-15T08:52:55;91796.31;;;11.08;48.69
59289;BME280;45056;47.602;9.886;2023-01-15T08:55:22;91784.47;;;11.11;48.75
59289;BME280;45056;47.602;9.886;2023-01-15T08:57:50;91788.97;;;11.15;48.95
59289;BME280;45056;47.602;9.886;2023-01-15T09:00:19;91801.44;;;11.21;48.87
59289;BME280;45056;47.602;9.886;2023-01-15T09:02:47;91806.69;;;11.25;48.37
59289;BME280;45056;47.602;9.886;2023-01-15T09:05:16;91798.59;;;11.31;47.87
59289;BME280;45056;47.602;9.886;2023-01-15T09:07:45;91807.31;;;11.35;47.68
59289;BME280;45056;47.602;9.886;2023-01-15T09:10:13;91818.28;;;11.40;47.01
59289;BME280;45056;47.602;9.886;2023-01-15T09:12:41;91822.31;;;11.45;46.48
59289;BME280;45056;47.602;9.886;2023-01-15T09:15:09;91820.16;;;11.49;45.98
59289;BME280;45056;47.602;9.886;2023-01-15T09:17:38;91822.94;;;11.55;45.96
59289;BME280;45056;47.602;9.886;2023-01-15T09:20:09;91836.63;;;11.61;46.00
59289;BME280;45056;47.602;9.886;2023-01-15T09:22:41;91863.69;;;11.64;46.03
59289;BME280;45056;47.602;9.886;2023-01-15T09:25:09;91884.72;;;11.64;46.29
59289;BME280;45056;47.602;9.886;2023-01-15T09:27:37;91901.28;;;11.60;47.23
59289;BME280;45056;47.602;9.886;2023-01-15T09:30:06;91915.66;;;11.46;48.91
59289;BME280;45056;47.602;9.886;2023-01-15T09:32:35;91920.56;;;11.26;50.34
59289;BME280;45056;47.602;9.886;2023-01-15T09:35:05;91946.47;;;11.07;52.39
59289;BME280;45056;47.602;9.886;2023-01-15T09:37:34;91953.78;;;10.86;54.24
59289;BME280;45056;47.602;9.886;2023-01-15T09:40:04;91960.31;;;10.64;55.78
59289;BME280;45056;47.602;9.886;2023-01-15T09:42:44;91977.53;;;10.46;56.33
59289;BME280;45056;47.602;9.886;2023-01-15T09:45:25;92003.13;;;10.30;57.85
59289;BME280;45056;47.602;9.886;2023-01-15T09:48:15;92003.06;;;10.15;58.75
59289;BME280;45056;47.602;9.886;2023-01-15T09:51:02;91989.69;;;10.02;59.34
59289;BME280;45056;47.602;9.886;2023-01-15T09:54:05;92004.22;;;9.89;59.64
59289;BME280;45056;47.602;9.886;2023-01-15T09:56:47;92015.59;;;9.78;59.86
59289;BME280;45056;47.602;9.886;2023-01-15T09:59:21;92005.53;;;9.70;60.19
59289;BME280;45056;47.602;9.886;2023-01-15T10:02:01;92001.34;;;9.59;60.12
59289;BME280;45056;47.602;9.886;2023-01-15T10:04:42;92011.31;;;9.53;60.28
59289;BME280;45056;47.602;9.886;2023-01-15T10:07:23;92018.88;;;9.49;60.43
59289;BME280;45056;47.602;9.886;2023-01-15T10:10:00;92027.34;;;9.42;60.51
59289;BME280;45056;47.602;9.886;2023-01-15T10:12:35;92036.25;;;9.33;60.82
59289;BME280;45056;47.602;9.886;2023-01-15T10:15:34;92039.72;;;9.24;60.75
59289;BME280;45056;47.602;9.886;2023-01-15T10:18:05;92045.91;;;9.15;61.12
59289;BME280;45056;47.602;9.886;2023-01-15T10:20:49;92048.19;;;9.07;61.30
59289;BME280;45056;47.602;9.886;2023-01-15T10:23:37;92057.09;;;8.99;61.44
59289;BME280;45056;47.602;9.886;2023-01-15T10:26:14;92056.34;;;8.89;61.55
59289;BME280;45056;47.602;9.886;2023-01-15T10:28:59;92063.72;;;8.79;61.97
59289;BME280;45056;47.602;9.886;2023-01-15T10:31:48;92061.00;;;8.70;62.33
59289;BME280;45056;47.602;9.886;2023-01-15T10:37:39;92071.06;;;8.50;63.42
59289;BME280;45056;47.602;9.886;2023-01-15T10:43:42;92103.97;;;8.30;63.93
59289;BME280;45056;47.602;9.886;2023-01-15T10:46:18;92094.44;;;8.16;64.47
59289;BME280;45056;47.602;9.886;2023-01-15T10:48:55;92101.31;;;8.08;64.90
59289;BME280;45056;47.602;9.886;2023-01-15T10:51:29;92106.28;;;8.00;65.28
59289;BME280;45056;47.602;9.886;2023-01-15T10:54:10;92113.44;;;7.94;65.01
59289;BME280;45056;47.602;9.886;2023-01-15T10:56:50;92104.41;;;7.88;65.13
59289;BME280;45056;47.602;9.886;2023-01-15T10:59:37;92129.47;;;7.79;65.20
59289;BME280;45056;47.602;9.886;2023-01-15T11:02:22;92144.94;;;7.69;65.27
59289;BME280;45056;47.602;9.886;2023-01-15T11:04:54;92155.69;;;7.60;65.26
59289;BME280;45056;47.602;9.886;2023-01-15T11:07:29;92164.22;;;7.49;65.25
59289;BME280;45056;47.602;9.886;2023-01-15T11:10:06;92163.81;;;7.38;65.17
59289;BME280;45056;47.602;9.886;2023-01-15T11:12:39;92173.06;;;7.27;65.91
59289;BME280;45056;47.602;9.886;2023-01-15T11:15:29;92172.28;;;7.27;66.32
59289;BME280;45056;47.602;9.886;2023-01-15T11:18:22;92177.28;;;7.28;65.97
59289;BME280;45056;47.602;9.886;2023-01-15T11:21:12;92192.88;;;7.24;65.40
59289;BME280;45056;47.602;9.886;2023-01-15T11:23:45;92201.78;;;7.12;64.95
59289;BME280;45056;47.602;9.886;2023-01-15T11:26:19;92211.56;;;6.96;65.28
59289;BME280;45056;47.602;9.886;2023-01-15T11:28:51;92212.66;;;6.86;65.62
59289;BME280;45056;47.602;9.886;2023-01-15T11:31:20;92215.38;;;6.73;65.67
59289;BME280;45056;47.602;9.886;2023-01-15T11:33:57;92209.88;;;6.63;65.79
59289;BME280;45056;47.602;9.886;2023-01-15T11:36:28;92218.63;;;6.55;65.92
59289;BME280;45056;47.602;9.886;2023-01-15T11:38:58;92224.38;;;6.44;65.94
59289;BME280;45056;47.602;9.886;2023-01-15T11:41:28;92226.19;;;6.34;65.78
59289;BME280;45056;47.602;9.886;2023-01-15T11:44:14;92223.81;;;6.23;65.92
59289;BME280;45056;47.602;9.886;2023-01-15T11:47:00;92239.59;;;6.12;65.97
59289;BME280;45056;47.602;9.886;2023-01-15T11:49:52;92236.75;;;6.02;66.17
59289;BME280;45056;47.602;9.886;2023-01-15T11:52:44;92242.31;;;5.95;66.30
59289;BME280;45056;47.602;9.886;2023-01-15T11:55:19;92251.19;;;5.96;66.45
59289;BME280;45056;47.602;9.886;2023-01-15T11:57:51;92254.72;;;5.92;66.14
59289;BME280;45056;47.602;9.886;2023-01-15T12:00:22;92257.94;;;5.87;66.02
59289;BME280;45056;47.602;9.886;2023-01-15T12:02:57;92262.69;;;5.83;66.21
59289;BME280;45056;47.602;9.886;2023-01-15T12:05:31;92264.31;;;5.81;66.30
59289;BME280;45056;47.602;9.886;2023-01-15T12:08:15;92286.09;;;5.73;66.38
59289;BME280;45056;47.602;9.886;2023-01-15T12:11:02;92289.09;;;5.62;66.14
59289;BME280;45056;47.602;9.886;2023-01-15T12:13:50;92279.97;;;5.56;66.52
59289;BME280;45056;47.602;9.886;2023-01-15T12:16:34;92288.25;;;5.49;66.09
59289;BME280;45056;47.602;9.886;2023-01-15T12:19:16;92304.31;;;5.40;66.22
59289;BME280;45056;47.602;9.886;2023-01-15T12:22:08;92307.19;;;5.32;66.45
59289;BME280;45056;47.602;9.886;2023-01-15T12:25:03;92307.66;;;5.27;66.40
59289;BME280;45056;47.602;9.886;2023-01-15T12:27:56;92318.56;;;5.24;66.31
59289;BME280;45056;47.602;9.886;2023-01-15T12:30:38;92326.06;;;5.16;66.24
59289;BME280;45056;47.602;9.886;2023-01-15T12:33:20;92337.34;;;5.11;66.60
59289;BME280;45056;47.602;9.886;2023-01-15T12:36:00;92340.22;;;5.03;66.42
59289;BME280;45056;47.602;9.886;2023-01-15T12:38:46;92344.25;;;4.95;66.55
59289;BME280;45056;47.602;9.886;2023-01-15T12:41:23;92362.44;;;4.91;66.61
59289;BME280;45056;47.602;9.886;2023-01-15T12:44:20;92361.81;;;4.83;66.70
59289;BME280;45056;47.602;9.886;2023-01-15T12:47:17;92377.75;;;4.78;66.78
59289;BME280;45056;47.602;9.886;2023-01-15T12:49:57;92392.47;;;4.73;66.92
59289;BME280;45056;47.602;9.886;2023-01-15T12:52:36;92392.56;;;4.69;66.97
59289;BME280;45056;47.602;9.886;2023-01-15T12:55:18;92406.50;;;4.64;67.03
59289;BME280;45056;47.602;9.886;2023-01-15T12:57:56;92407.28;;;4.65;66.73
59289;BME280;45056;47.602;9.886;2023-01-15T13:00:31;92401.19;;;4.60;66.81
59289;BME280;45056;47.602;9.886;2023-01-15T13:03:18;92420.13;;;4.57;66.69
59289;BME280;45056;47.602;9.886;2023-01-15T13:05:54;92413.28;;;4.52;66.80
59289;BME280;45056;47.602;9.886;2023-01-15T13:08:32;92423.72;;;4.50;66.59
59289;BME280;45056;47.602;9.886;2023-01-15T13:11:10;92422.28;;;4.45;66.82
59289;BME280;45056;47.602;9.886;2023-01-15T13:13:40;92421.16;;;4.43;66.71
59289;BME280;45056;47.602;9.886;2023-01-15T13:19:05;92420.91;;;4.37;66.69
59289;BME280;45056;47.602;9.886;2023-01-15T13:21:45;92430.56;;;4.35;66.63
59289;BME280;45056;47.602;9.886;2023-01-15T13:27:53;92447.59;;;4.28;66.86
59289;BME280;45056;47.602;9.886;2023-01-15T13:30:43;92440.06;;;4.19;66.66
59289;BME280;45056;47.602;9.886;2023-01-15T13:33:27;92452.09;;;4.14;66.90
59289;BME280;45056;47.602;9.886;2023-01-15T13:36:08;92458.31;;;4.11;67.34
59289;BME280;45056;47.602;9.886;2023-01-15T13:38:44;92458.69;;;4.10;67.39
59289;BME280;45056;47.602;9.886;2023-01-15T13:41:19;92464.50;;;4.08;66.94
59289;BME280;45056;47.602;9.886;2023-01-15T13:44:16;92457.31;;;4.01;67.16
59289;BME280;45056;47.602;9.886;2023-01-15T13:46:58;92456.63;;;3.97;66.98
59289;BME280;45056;47.602;9.886;2023-01-15T13:49:33;92470.91;;;3.94;67.17
59289;BME280;45056;47.602;9.886;2023-01-15T13:52:07;92460.06;;;3.98;67.37
59289;BME280;45056;47.602;9.886;2023-01-15T13:54:46;92480.03;;;4.00;67.21
59289;BME280;45056;47.602;9.886;2023-01-15T13:57:23;92472.34;;;3.99;67.06
59289;BME280;45056;47.602;9.886;2023-01-15T13:59:54;92458.47;;;4.00;67.02
59289;BME280;45056;47.602;9.886;2023-01-15T14:02:27;92459.56;;;4.03;66.68